sensor_id;sensor_type;location;lat;lon;timestamp;temperature;humidity
1778;DHT22;886;50.082;8.222;2023-04-15T00:01:20;7.10;98.30
1778;DHT22;886;50.082;8.222;2023-04-15T00:03:50;7.20;98.00
1778;DHT22;886;50.082;8.222;2023-04-15T00:06:24;7.20;98.10
1778;DHT22;886;50.082;8.222;2023-04-15T00:08:53;7.10;98.60
1778;DHT22;886;50.082;8.222;2023-04-15T00:11:33;7.00;98.60
1778;DHT22;886;50.082;8.222;2023-04-15T00:14:03;7.10;98.80
1778;DHT22;886;50.082;8.222;2023-04-15T00:16:32;7.00;98.90
1778;DHT22;886;50.082;8.222;2023-04-15T00:19:00;7.10;98.80
1778;DHT22;886;50.082;8.222;2023-04-15T00:21:31;7.00;99.10
1778;DHT22;886;50.082;8.222;2023-04-15T00:23:58;7.10;99.00
1778;DHT22;886;50.082;8.222;2023-04-15T00:26:26;7.00;99.00
1778;DHT22;886;50.082;8.222;2023-04-15T00:28:53;7.10;99.10
1778;DHT22;886;50.082;8.222;2023-04-15T00:31:27;7.00;99.20
1778;DHT22;886;50.082;8.222;2023-04-15T00:33:56;6.90;99.40
1778;DHT22;886;50.082;8.222;2023-04-15T00:36:23;6.90;99.80
1778;DHT22;886;50.082;8.222;2023-04-15T00:38:56;6.80;99.80
1778;DHT22;886;50.082;8.222;2023-04-15T00:41:24;6.80;99.90
1778;DHT22;886;50.082;8.222;2023-04-15T00:43:51;6.80;99.90
1778;DHT22;886;50.082;8.222;2023-04-15T00:46:19;6.70;99.90
1778;DHT22;886;50.082;8.222;2023-04-15T00:48:52;6.70;99.90
1778;DHT22;886;50.082;8.222;2023-04-15T00:51:21;6.70;99.90
1778;DHT22;886;50.082;8.222;2023-04-15T00:53:56;6.70;99.90
1778;DHT22;886;50.082;8.222;2023-04-15T00:56:28;6.60;99.90
1778;DHT22;886;50.082;8.222;2023-04-15T00:58:55;6.70;99.90
1778;DHT22;886;50.082;8.222;2023-04-15T01:01:25;6.70;99.90
1778;DHT22;886;50.082;8.222;2023-04-15T01:03:54;6.70;99.90
1778;DHT22;886;50.082;8.222;2023-04-15T01:06:22;6.70;99.90
1778;DHT22;886;50.082;8.222;2023-04-15T01:08:50;6.60;99.90
1778;DHT22;886;50.082;8.222;2023-04-15T01:11:19;6.60;99.90
1778;DHT22;886;50.082;8.222;2023-04-15T01:13:47;6.60;99.90
1778;DHT22;886;50.082;8.222;2023-04-15T01:16:14;6.50;99.90
1778;DHT22;886;50.082;8.222;2023-04-15T01:18:43;6.50;99.90
1778;DHT22;886;50.082;8.222;2023-04-15T01:21:11;6.50;99.90
1778;DHT22;886;50.082;8.222;2023-04-15T01:23:39;6.50;99.90
1778;DHT22;886;50.082;8.222;2023-04-15T01:26:08;6.50;99.90
1778;DHT22;886;50.082;8.222;2023-04-15T01:28:36;6.50;99.90
1778;DHT22;886;50.082;8.222;2023-04-15T01:31:12;6.50;99.90
1778;DHT22;886;50.082;8.222;2023-04-15T01:33:46;6.40;99.90
1778;DHT22;886;50.082;8.222;2023-04-15T01:36:14;6.40;99.90
1778;DHT22;886;50.082;8.222;2023-04-15T01:38:43;6.40;99.90
1778;DHT22;886;50.082;8.222;2023-04-15T01:41:14;6.50;99.90
1778;DHT22;886;50.082;8.222;2023-04-15T01:43:42;6.60;99.90
1778;DHT22;886;50.082;8.222;2023-04-15T01:46:12;6.50;99.90
1778;DHT22;886;50.082;8.222;2023-04-15T01:48:40;6.50;99.90
1778;DHT22;886;50.082;8.222;2023-04-15T01:51:07;6.50;99.90
1778;DHT22;886;50.082;8.222;2023-04-15T01:53:35;6.40;99.90
1778;DHT22;886;50.082;8.222;2023-04-15T01:56:03;6.30;99.90
1778;DHT22;886;50.082;8.222;2023-04-15T01:58:31;6.30;99.90
1778;DHT22;886;50.082;8.222;2023-04-15T02:01:03;6.30;99.90
1778;DHT22;886;50.082;8.222;2023-04-15T02:03:30;6.30;99.90
1778;DHT22;886;50.082;8.222;2023-04-15T02:05:58;6.30;99.90
1778;DHT22;886;50.082;8.222;2023-04-15T02:08:26;6.20;99.90
1778;DHT22;886;50.082;8.222;2023-04-15T02:10:54;6.20;99.90
1778;DHT22;886;50.082;8.222;2023-04-15T02:13:22;6.20;99.90
1778;DHT22;886;50.082;8.222;2023-04-15T02:15:54;6.20;99.90
1778;DHT22;886;50.082;8.222;2023-04-15T02:18:21;6.20;99.90
1778;DHT22;886;50.082;8.222;2023-04-15T02:20:50;6.10;99.90
1778;DHT22;886;50.082;8.222;2023-04-15T02:23:18;6.10;99.90
1778;DHT22;886;50.082;8.222;2023-04-15T02:25:46;6.00;99.90
1778;DHT22;886;50.082;8.222;2023-04-15T02:28:22;6.00;99.90
1778;DHT22;886;50.082;8.222;2023-04-15T02:30:50;6.00;99.90
1778;DHT22;886;50.082;8.222;2023-04-15T02:33:20;6.10;99.90
1778;DHT22;886;50.082;8.222;2023-04-15T02:35:47;6.00;99.90
1778;DHT22;886;50.082;8.222;2023-04-15T02:38:15;6.00;99.90
1778;DHT22;886;50.082;8.222;2023-04-15T02:40:43;6.00;99.90
1778;DHT22;886;50.082;8.222;2023-04-15T02:43:11;5.90;99.90
1778;DHT22;886;50.082;8.222;2023-04-15T02:45:38;5.90;99.90
1778;DHT22;886;50.082;8.222;2023-04-15T02:48:07;5.80;99.90
1778;DHT22;886;50.082;8.222;2023-04-15T02:50:44;5.80;99.90
1778;DHT22;886;50.082;8.222;2023-04-15T02:53:17;5.80;99.90
1778;DHT22;886;50.082;8.222;2023-04-15T02:55:45;5.80;99.90
1778;DHT22;886;50.082;8.222;2023-04-15T02:58:13;5.80;99.90
1778;DHT22;886;50.082;8.222;2023-04-15T03:00:49;5.90;99.90
1778;DHT22;886;50.082;8.222;2023-04-15T03:03:18;5.80;99.90
1778;DHT22;886;50.082;8.222;2023-04-15T03:05:54;5.60;99.90
1778;DHT22;886;50.082;8.222;2023-04-15T03:08:24;5.70;99.90
1778;DHT22;886;50.082;8.222;2023-04-15T03:10:52;5.60;99.90
1778;DHT22;886;50.082;8.222;2023-04-15T03:13:20;5.60;99.90
1778;DHT22;886;50.082;8.222;2023-04-15T03:15:47;5.60;99.90
1778;DHT22;886;50.082;8.222;2023-04-15T03:18:15;5.70;99.90
1778;DHT22;886;50.082;8.222;2023-04-15T03:20:42;5.70;99.90
1778;DHT22;886;50.082;8.222;2023-04-15T03:23:11;5.80;99.90
1778;DHT22;886;50.082;8.222;2023-04-15T03:25:38;5.70;99.90
1778;DHT22;886;50.082;8.222;2023-04-15T03:28:14;5.70;99.90
1778;DHT22;886;50.082;8.222;2023-04-15T03:30:44;5.60;99.90
1778;DHT22;886;50.082;8.222;2023-04-15T03:33:14;5.60;99.90
1778;DHT22;886;50.082;8.222;2023-04-15T03:35:41;5.60;99.90
1778;DHT22;886;50.082;8.222;2023-04-15T03:38:14;5.60;99.90
1778;DHT22;886;50.082;8.222;2023-04-15T03:40:42;5.60;99.90
1778;DHT22;886;50.082;8.222;2023-04-15T03:43:09;5.60;99.90
1778;DHT22;886;50.082;8.222;2023-04-15T03:45:38;5.60;99.90
1778;DHT22;886;50.082;8.222;2023-04-15T03:48:08;5.50;99.90
1778;DHT22;886;50.082;8.222;2023-04-15T03:50:43;5.30;99.90
1778;DHT22;886;50.082;8.222;2023-04-15T03:53:11;5.40;99.90
1778;DHT22;886;50.082;8.222;2023-04-15T03:55:40;5.40;99.90
1778;DHT22;886;50.082;8.222;2023-04-15T03:58:10;5.40;99.90
1778;DHT22;886;50.082;8.222;2023-04-15T04:00:46;5.20;99.90
1778;DHT22;886;50.082;8.222;2023-04-15T04:03:13;5.20;99.90
1778;DHT22;886;50.082;8.222;2023-04-15T04:05:41;5.30;99.90
1778;DHT22;886;50.082;8.222;2023-04-15T04:08:12;5.30;99.90
1778;DHT22;886;50.082;8.222;2023-04-15T04:10:41;5.30;99.90
1778;DHT22;886;50.082;8.222;2023-04-15T04:13:08;5.30;99.90
1778;DHT22;886;50.082;8.222;2023-04-15T04:15:42;5.30;99.90
1778;DHT22;886;50.082;8.222;2023-04-15T04:18:10;5.20;99.90
1778;DHT22;886;50.082;8.222;2023-04-15T04:20:37;5.20;99.90
1778;DHT22;886;50.082;8.222;2023-04-15T04:23:05;5.20;99.90
1778;DHT22;886;50.082;8.222;2023-04-15T04:25:32;5.20;99.90
1778;DHT22;886;50.082;8.222;2023-04-15T04:28:01;5.20;99.90
1778;DHT22;886;50.082;8.222;2023-04-15T04:30:28;5.30;99.90
1778;DHT22;886;50.082;8.222;2023-04-15T04:32:56;5.40;99.90
1778;DHT22;886;50.082;8.222;2023-04-15T04:35:24;5.30;99.90
1778;DHT22;886;50.082;8.222;2023-04-15T04:37:57;5.40;99.90
1778;DHT22;886;50.082;8.222;2023-04-15T04:40:25;5.30;99.90
1778;DHT22;886;50.082;8.222;2023-04-15T04:42:56;5.30;99.90
1778;DHT22;886;50.082;8.222;2023-04-15T04:45:25;5.40;99.90
1778;DHT22;886;50.082;8.222;2023-04-15T04:47:58;5.40;99.90
1778;DHT22;886;50.082;8.222;2023-04-15T04:50:32;5.40;99.90
1778;DHT22;886;50.082;8.222;2023-04-15T04:52:59;5.50;99.90
1778;DHT22;886;50.082;8.222;2023-04-15T04:55:27;5.50;99.90
1778;DHT22;886;50.082;8.222;2023-04-15T04:57:55;5.50;99.90
1778;DHT22;886;50.082;8.222;2023-04-15T05:00:23;5.50;99.90
1778;DHT22;886;50.082;8.222;2023-04-15T05:02:52;5.50;99.90
1778;DHT22;886;50.082;8.222;2023-04-15T05:05:19;5.60;99.90
1778;DHT22;886;50.082;8.222;2023-04-15T05:07:47;5.70;99.90
1778;DHT22;886;50.082;8.222;2023-04-15T05:10:17;5.70;99.90
1778;DHT22;886;50.082;8.222;2023-04-15T05:12:44;5.50;99.90
1778;DHT22;886;50.082;8.222;2023-04-15T05:15:12;5.50;99.90
1778;DHT22;886;50.082;8.222;2023-04-15T05:17:43;5.50;99.90
1778;DHT22;886;50.082;8.222;2023-04-15T05:20:11;5.60;99.90
1778;DHT22;886;50.082;8.222;2023-04-15T05:22:39;5.70;99.90
1778;DHT22;886;50.082;8.222;2023-04-15T05:25:10;5.80;99.90
1778;DHT22;886;50.082;8.222;2023-04-15T05:27:38;5.80;99.90
1778;DHT22;886;50.082;8.222;2023-04-15T05:30:06;5.90;99.90
1778;DHT22;886;50.082;8.222;2023-04-15T05:32:36;6.00;99.90
1778;DHT22;886;50.082;8.222;2023-04-15T05:35:06;5.80;99.90
1778;DHT22;886;50.082;8.222;2023-04-15T05:37:41;5.80;99.90
1778;DHT22;886;50.082;8.222;2023-04-15T05:40:16;5.80;99.90
1778;DHT22;886;50.082;8.222;2023-04-15T05:42:43;5.90;99.90
1778;DHT22;886;50.082;8.222;2023-04-15T05:45:11;5.80;99.90
1778;DHT22;886;50.082;8.222;2023-04-15T05:47:38;5.90;99.90
1778;DHT22;886;50.082;8.222;2023-04-15T05:50:07;5.90;99.90
1778;DHT22;886;50.082;8.222;2023-04-15T05:52:37;6.00;99.90
1778;DHT22;886;50.082;8.222;2023-04-15T05:55:08;6.00;99.90
1778;DHT22;886;50.082;8.222;2023-04-15T05:57:36;6.10;99.90
1778;DHT22;886;50.082;8.222;2023-04-15T06:00:06;6.20;99.90
1778;DHT22;886;50.082;8.222;2023-04-15T06:02:34;6.10;99.90
1778;DHT22;886;50.082;8.222;2023-04-15T06:05:04;6.20;99.90
1778;DHT22;886;50.082;8.222;2023-04-15T06:07:37;6.30;99.90
1778;DHT22;886;50.082;8.222;2023-04-15T06:10:05;6.30;99.90
1778;DHT22;886;50.082;8.222;2023-04-15T06:12:36;6.40;99.90
1778;DHT22;886;50.082;8.222;2023-04-15T06:15:09;6.50;99.90
1778;DHT22;886;50.082;8.222;2023-04-15T06:17:40;6.60;99.90
1778;DHT22;886;50.082;8.222;2023-04-15T06:20:08;6.60;99.90
1778;DHT22;886;50.082;8.222;2023-04-15T06:22:38;6.60;99.90
1778;DHT22;886;50.082;8.222;2023-04-15T06:25:07;6.60;99.90
1778;DHT22;886;50.082;8.222;2023-04-15T06:27:41;6.50;99.90
1778;DHT22;886;50.082;8.222;2023-04-15T06:30:09;6.70;99.90
1778;DHT22;886;50.082;8.222;2023-04-15T06:32:37;6.80;99.90
1778;DHT22;886;50.082;8.222;2023-04-15T06:35:05;6.80;99.90
1778;DHT22;886;50.082;8.222;2023-04-15T06:37:32;7.00;99.90
1778;DHT22;886;50.082;8.222;2023-04-15T06:40:00;7.30;99.90
1778;DHT22;886;50.082;8.222;2023-04-15T06:42:28;7.60;99.90
1778;DHT22;886;50.082;8.222;2023-04-15T06:45:08;7.90;99.90
1778;DHT22;886;50.082;8.222;2023-04-15T06:47:39;8.00;99.90
1778;DHT22;886;50.082;8.222;2023-04-15T06:50:08;8.10;99.90
1778;DHT22;886;50.082;8.222;2023-04-15T06:52:40;8.20;99.90
1778;DHT22;886;50.082;8.222;2023-04-15T06:55:09;8.20;99.90
1778;DHT22;886;50.082;8.222;2023-04-15T06:57:36;8.50;99.90
1778;DHT22;886;50.082;8.222;2023-04-15T07:00:07;8.80;99.90
1778;DHT22;886;50.082;8.222;2023-04-15T07:02:36;9.00;99.90
1778;DHT22;886;50.082;8.222;2023-04-15T07:05:05;9.10;99.90
1778;DHT22;886;50.082;8.222;2023-04-15T07:07:34;9.30;99.90
1778;DHT22;886;50.082;8.222;2023-04-15T07:10:01;9.40;99.90
1778;DHT22;886;50.082;8.222;2023-04-15T07:12:30;9.80;99.90
1778;DHT22;886;50.082;8.222;2023-04-15T07:14:58;9.80;99.90
1778;DHT22;886;50.082;8.222;2023-04-15T07:17:25;9.80;99.90
1778;DHT22;886;50.082;8.222;2023-04-15T07:19:55;10.10;99.90
1778;DHT22;886;50.082;8.222;2023-04-15T07:22:23;11.20;99.60
1778;DHT22;886;50.082;8.222;2023-04-15T07:24:56;16.00;93.80
1778;DHT22;886;50.082;8.222;2023-04-15T07:27:24;19.50;87.60
1778;DHT22;886;50.082;8.222;2023-04-15T07:29:53;17.70;84.20
1778;DHT22;886;50.082;8.222;2023-04-15T07:32:23;15.60;89.40
1778;DHT22;886;50.082;8.222;2023-04-15T07:34:54;17.60;87.00
1778;DHT22;886;50.082;8.222;2023-04-15T07:37:22;17.10;86.20
1778;DHT22;886;50.082;8.222;2023-04-15T07:39:52;16.90;85.80
1778;DHT22;886;50.082;8.222;2023-04-15T07:42:19;18.90;82.20
1778;DHT22;886;50.082;8.222;2023-04-15T07:44:46;20.40;78.50
1778;DHT22;886;50.082;8.222;2023-04-15T07:47:15;22.00;75.60
1778;DHT22;886;50.082;8.222;2023-04-15T07:49:50;21.10;72.70
1778;DHT22;886;50.082;8.222;2023-04-15T07:52:17;20.30;73.40
1778;DHT22;886;50.082;8.222;2023-04-15T07:54:48;22.60;71.80
1778;DHT22;886;50.082;8.222;2023-04-15T07:57:21;22.70;69.70
1778;DHT22;886;50.082;8.222;2023-04-15T07:59:48;21.70;69.20
1778;DHT22;886;50.082;8.222;2023-04-15T08:02:17;19.00;73.70
1778;DHT22;886;50.082;8.222;2023-04-15T08:04:45;17.30;77.90
1778;DHT22;886;50.082;8.222;2023-04-15T08:07:15;16.40;81.20
1778;DHT22;886;50.082;8.222;2023-04-15T08:09:44;16.80;82.90
1778;DHT22;886;50.082;8.222;2023-04-15T08:12:12;17.80;81.40
1778;DHT22;886;50.082;8.222;2023-04-15T08:14:39;19.40;77.50
1778;DHT22;886;50.082;8.222;2023-04-15T08:17:10;19.70;75.50
1778;DHT22;886;50.082;8.222;2023-04-15T08:19:39;18.80;76.80
1778;DHT22;886;50.082;8.222;2023-04-15T08:22:08;19.70;76.40
1778;DHT22;886;50.082;8.222;2023-04-15T08:24:44;19.90;75.40
1778;DHT22;886;50.082;8.222;2023-04-15T08:27:11;22.90;72.20
1778;DHT22;886;50.082;8.222;2023-04-15T08:29:44;25.50;66.70
1778;DHT22;886;50.082;8.222;2023-04-15T08:32:15;26.80;63.60
1778;DHT22;886;50.082;8.222;2023-04-15T08:34:44;27.70;60.80
1778;DHT22;886;50.082;8.222;2023-04-15T08:37:15;27.30;59.10
1778;DHT22;886;50.082;8.222;2023-04-15T08:39:42;28.00;55.40
1778;DHT22;886;50.082;8.222;2023-04-15T08:42:15;28.60;53.60
1778;DHT22;886;50.082;8.222;2023-04-15T08:44:45;25.90;54.30
1778;DHT22;886;50.082;8.222;2023-04-15T08:47:13;25.90;54.40
1778;DHT22;886;50.082;8.222;2023-04-15T08:49:46;25.90;53.20
1778;DHT22;886;50.082;8.222;2023-04-15T08:52:19;24.80;53.50
1778;DHT22;886;50.082;8.222;2023-04-15T08:54:47;23.50;53.60
1778;DHT22;886;50.082;8.222;2023-04-15T08:57:17;22.30;55.90
1778;DHT22;886;50.082;8.222;2023-04-15T08:59:45;20.50;55.30
1778;DHT22;886;50.082;8.222;2023-04-15T09:02:15;19.10;57.40
1778;DHT22;886;50.082;8.222;2023-04-15T09:04:43;18.40;58.30
1778;DHT22;886;50.082;8.222;2023-04-15T09:07:15;17.80;59.80
1778;DHT22;886;50.082;8.222;2023-04-15T09:09:42;17.40;60.10
1778;DHT22;886;50.082;8.222;2023-04-15T09:12:12;17.00;58.80
1778;DHT22;886;50.082;8.222;2023-04-15T09:14:42;16.90;59.60
1778;DHT22;886;50.082;8.222;2023-04-15T09:17:11;16.90;60.50
1778;DHT22;886;50.082;8.222;2023-04-15T09:19:44;16.90;60.50
1778;DHT22;886;50.082;8.222;2023-04-15T09:22:19;16.90;59.80
1778;DHT22;886;50.082;8.222;2023-04-15T09:24:47;16.70;59.00
1778;DHT22;886;50.082;8.222;2023-04-15T09:27:16;16.50;58.60
1778;DHT22;886;50.082;8.222;2023-04-15T09:29:49;16.30;58.40
1778;DHT22;886;50.082;8.222;2023-04-15T09:32:17;16.10;59.50
1778;DHT22;886;50.082;8.222;2023-04-15T09:34:46;15.90;59.50
1778;DHT22;886;50.082;8.222;2023-04-15T09:37:13;15.90;59.70
1778;DHT22;886;50.082;8.222;2023-04-15T09:40:02;15.80;59.10
1778;DHT22;886;50.082;8.222;2023-04-15T09:42:30;15.80;59.50
1778;DHT22;886;50.082;8.222;2023-04-15T09:45:10;15.80;60.20
1778;DHT22;886;50.082;8.222;2023-04-15T09:47:38;15.80;61.80
1778;DHT22;886;50.082;8.222;2023-04-15T09:50:07;15.80;62.40
1778;DHT22;886;50.082;8.222;2023-04-15T09:52:42;15.80;62.70
1778;DHT22;886;50.082;8.222;2023-04-15T09:55:13;15.70;63.50
1778;DHT22;886;50.082;8.222;2023-04-15T09:57:47;15.60;64.30
1778;DHT22;886;50.082;8.222;2023-04-15T10:00:19;15.70;64.60
1778;DHT22;886;50.082;8.222;2023-04-15T10:02:49;15.60;64.30
1778;DHT22;886;50.082;8.222;2023-04-15T10:05:17;15.50;65.10
1778;DHT22;886;50.082;8.222;2023-04-15T10:07:45;15.50;64.80
1778;DHT22;886;50.082;8.222;2023-04-15T10:10:16;15.50;64.50
1778;DHT22;886;50.082;8.222;2023-04-15T10:12:47;15.60;64.70
1778;DHT22;886;50.082;8.222;2023-04-15T10:15:15;15.70;64.60
1778;DHT22;886;50.082;8.222;2023-04-15T10:17:47;15.80;64.60
1778;DHT22;886;50.082;8.222;2023-04-15T10:20:18;15.70;63.60
1778;DHT22;886;50.082;8.222;2023-04-15T10:22:47;15.50;63.70
1778;DHT22;886;50.082;8.222;2023-04-15T10:25:20;15.50;63.70
1778;DHT22;886;50.082;8.222;2023-04-15T10:27:47;15.30;63.00
1778;DHT22;886;50.082;8.222;2023-04-15T10:30:19;15.20;64.60
1778;DHT22;886;50.082;8.222;2023-04-15T10:32:49;15.10;64.90
1778;DHT22;886;50.082;8.222;2023-04-15T10:35:17;15.00;65.10
1778;DHT22;886;50.082;8.222;2023-04-15T10:37:47;14.90;64.60
1778;DHT22;886;50.082;8.222;2023-04-15T10:40:27;14.90;64.80
1778;DHT22;886;50.082;8.222;2023-04-15T10:42:58;14.90;61.90
1778;DHT22;886;50.082;8.222;2023-04-15T10:45:33;14.90;62.70
1778;DHT22;886;50.082;8.222;2023-04-15T10:48:05;14.80;62.80
1778;DHT22;886;50.082;8.222;2023-04-15T10:50:39;14.80;62.40
1778;DHT22;886;50.082;8.222;2023-04-15T10:53:11;14.70;63.70
1778;DHT22;886;50.082;8.222;2023-04-15T10:55:58;14.60;64.20
1778;DHT22;886;50.082;8.222;2023-04-15T10:58:40;14.50;64.50
1778;DHT22;886;50.082;8.222;2023-04-15T11:01:07;14.50;65.10
1778;DHT22;886;50.082;8.222;2023-04-15T11:03:37;14.50;63.90
1778;DHT22;886;50.082;8.222;2023-04-15T11:06:09;14.50;62.60
1778;DHT22;886;50.082;8.222;2023-04-15T11:08:57;14.50;62.40
1778;DHT22;886;50.082;8.222;2023-04-15T11:14:40;14.80;63.00
1778;DHT22;886;50.082;8.222;2023-04-15T11:17:09;14.70;63.10
1778;DHT22;886;50.082;8.222;2023-04-15T11:19:38;14.90;63.80
1778;DHT22;886;50.082;8.222;2023-04-15T11:22:10;14.90;63.60
1778;DHT22;886;50.082;8.222;2023-04-15T11:24:46;14.90;63.60
1778;DHT22;886;50.082;8.222;2023-04-15T11:27:22;14.80;64.40
1778;DHT22;886;50.082;8.222;2023-04-15T11:29:50;14.90;64.80
1778;DHT22;886;50.082;8.222;2023-04-15T11:32:21;14.70;65.40
1778;DHT22;886;50.082;8.222;2023-04-15T11:34:55;14.60;65.90
1778;DHT22;886;50.082;8.222;2023-04-15T11:37:27;14.50;66.20
1778;DHT22;886;50.082;8.222;2023-04-15T11:39:55;14.50;66.50
1778;DHT22;886;50.082;8.222;2023-04-15T11:42:30;14.50;67.10
1778;DHT22;886;50.082;8.222;2023-04-15T11:45:15;14.70;67.10
1778;DHT22;886;50.082;8.222;2023-04-15T11:47:45;14.70;67.60
1778;DHT22;886;50.082;8.222;2023-04-15T11:50:14;14.80;67.70
1778;DHT22;886;50.082;8.222;2023-04-15T11:52:53;14.80;69.00
1778;DHT22;886;50.082;8.222;2023-04-15T11:55:22;14.90;68.60
1778;DHT22;886;50.082;8.222;2023-04-15T11:58:05;15.10;69.00
1778;DHT22;886;50.082;8.222;2023-04-15T12:00:37;15.20;69.50
1778;DHT22;886;50.082;8.222;2023-04-15T12:03:14;15.20;70.80
1778;DHT22;886;50.082;8.222;2023-04-15T12:06:11;15.10;71.70
1778;DHT22;886;50.082;8.222;2023-04-15T12:09:03;15.00;72.30
1778;DHT22;886;50.082;8.222;2023-04-15T12:11:36;14.90;73.00
1778;DHT22;886;50.082;8.222;2023-04-15T12:14:09;14.90;73.00
1778;DHT22;886;50.082;8.222;2023-04-15T12:16:41;15.10;73.10
1778;DHT22;886;50.082;8.222;2023-04-15T12:19:27;15.30;73.30
1778;DHT22;886;50.082;8.222;2023-04-15T12:21:58;15.30;73.20
1778;DHT22;886;50.082;8.222;2023-04-15T12:24:28;15.00;74.10
1778;DHT22;886;50.082;8.222;2023-04-15T12:27:11;14.80;75.30
1778;DHT22;886;50.082;8.222;2023-04-15T12:29:43;14.70;75.40
1778;DHT22;886;50.082;8.222;2023-04-15T12:32:12;14.80;75.60
1778;DHT22;886;50.082;8.222;2023-04-15T12:34:42;14.80;76.00
1778;DHT22;886;50.082;8.222;2023-04-15T12:37:11;14.60;76.70
1778;DHT22;886;50.082;8.222;2023-04-15T12:39:42;14.60;77.60
1778;DHT22;886;50.082;8.222;2023-04-15T12:42:17;14.70;78.00
1778;DHT22;886;50.082;8.222;2023-04-15T12:44:49;14.70;77.90
1778;DHT22;886;50.082;8.222;2023-04-15T12:47:17;14.80;78.00
1778;DHT22;886;50.082;8.222;2023-04-15T12:49:44;14.80;78.40
1778;DHT22;886;50.082;8.222;2023-04-15T12:52:15;14.70;79.00
1778;DHT22;886;50.082;8.222;2023-04-15T12:54:45;14.40;79.80
1778;DHT22;886;50.082;8.222;2023-04-15T12:57:20;14.30;80.90
1778;DHT22;886;50.082;8.222;2023-04-15T12:59:49;14.40;81.50
1778;DHT22;886;50.082;8.222;2023-04-15T13:02:19;14.30;81.70
1778;DHT22;886;50.082;8.222;2023-04-15T13:04:54;14.40;82.80
1778;DHT22;886;50.082;8.222;2023-04-15T13:07:22;14.30;84.00
1778;DHT22;886;50.082;8.222;2023-04-15T13:09:50;14.30;84.70
1778;DHT22;886;50.082;8.222;2023-04-15T13:12:17;14.30;86.00
1778;DHT22;886;50.082;8.222;2023-04-15T13:14:52;14.20;87.20
1778;DHT22;886;50.082;8.222;2023-04-15T13:17:19;13.90;88.70
1778;DHT22;886;50.082;8.222;2023-04-15T13:19:48;13.70;90.30
1778;DHT22;886;50.082;8.222;2023-04-15T13:22:15;13.80;91.20
1778;DHT22;886;50.082;8.222;2023-04-15T13:24:43;13.90;91.30
1778;DHT22;886;50.082;8.222;2023-04-15T13:27:16;13.90;91.60
1778;DHT22;886;50.082;8.222;2023-04-15T13:29:44;14.10;92.10
1778;DHT22;886;50.082;8.222;2023-04-15T13:32:12;14.20;92.50
1778;DHT22;886;50.082;8.222;2023-04-15T13:34:40;14.10;93.00
1778;DHT22;886;50.082;8.222;2023-04-15T13:37:11;13.90;92.80
1778;DHT22;886;50.082;8.222;2023-04-15T13:39:39;13.90;93.70
1778;DHT22;886;50.082;8.222;2023-04-15T13:42:06;13.80;94.10
1778;DHT22;886;50.082;8.222;2023-04-15T13:44:33;13.70;94.70
1778;DHT22;886;50.082;8.222;2023-04-15T13:47:07;13.60;95.30
1778;DHT22;886;50.082;8.222;2023-04-15T13:49:42;13.50;96.20
1778;DHT22;886;50.082;8.222;2023-04-15T13:52:10;13.40;96.80
1778;DHT22;886;50.082;8.222;2023-04-15T13:54:37;13.40;97.20
1778;DHT22;886;50.082;8.222;2023-04-15T13:57:05;13.20;97.60
1778;DHT22;886;50.082;8.222;2023-04-15T13:59:32;13.20;98.00
1778;DHT22;886;50.082;8.222;2023-04-15T14:02:03;13.20;97.40
1778;DHT22;886;50.082;8.222;2023-04-15T14:04:31;13.20;97.70
1778;DHT22;886;50.082;8.222;2023-04-15T14:07:00;13.30;97.80
1778;DHT22;886;50.082;8.222;2023-04-15T14:09:33;13.40;97.70
1778;DHT22;886;50.082;8.222;2023-04-15T14:12:01;13.30;97.50
1778;DHT22;886;50.082;8.222;2023-04-15T14:14:31;13.30;98.20
1778;DHT22;886;50.082;8.222;2023-04-15T14:16:58;13.20;98.10
1778;DHT22;886;50.082;8.222;2023-04-15T14:19:26;13.00;98.40
1778;DHT22;886;50.082;8.222;2023-04-15T14:22:00;12.90;98.80
1778;DHT22;886;50.082;8.222;2023-04-15T14:24:29;12.90;99.20
1778;DHT22;886;50.082;8.222;2023-04-15T14:27:00;12.80;99.50
1778;DHT22;886;50.082;8.222;2023-04-15T14:29:30;12.70;99.90
1778;DHT22;886;50.082;8.222;2023-04-15T14:31:57;12.70;99.90
1778;DHT22;886;50.082;8.222;2023-04-15T14:34:46;12.80;99.90
1778;DHT22;886;50.082;8.222;2023-04-15T14:37:16;12.80;99.90
1778;DHT22;886;50.082;8.222;2023-04-15T14:39:47;12.70;99.90
1778;DHT22;886;50.082;8.222;2023-04-15T14:42:14;12.50;99.90
1778;DHT22;886;50.082;8.222;2023-04-15T14:44:42;12.40;99.90
1778;DHT22;886;50.082;8.222;2023-04-15T14:47:11;12.40;99.90
1778;DHT22;886;50.082;8.222;2023-04-15T14:49:47;12.40;99.90
1778;DHT22;886;50.082;8.222;2023-04-15T14:52:17;12.50;99.90
1778;DHT22;886;50.082;8.222;2023-04-15T14:54:44;12.40;99.90
1778;DHT22;886;50.082;8.222;2023-04-15T14:57:15;12.50;99.90
1778;DHT22;886;50.082;8.222;2023-04-15T14:59:45;12.50;99.90
1778;DHT22;886;50.082;8.222;2023-04-15T15:02:13;12.50;99.90
1778;DHT22;886;50.082;8.222;2023-04-15T15:05:02;12.60;99.90
1778;DHT22;886;50.082;8.222;2023-04-15T15:07:31;12.60;99.90
1778;DHT22;886;50.082;8.222;2023-04-15T15:09:59;12.50;99.90
1778;DHT22;886;50.082;8.222;2023-04-15T15:12:35;12.50;99.90
1778;DHT22;886;50.082;8.222;2023-04-15T15:15:05;12.40;99.90
1778;DHT22;886;50.082;8.222;2023-04-15T15:17:53;12.30;99.90
1778;DHT22;886;50.082;8.222;2023-04-15T15:20:25;12.30;99.90
1778;DHT22;886;50.082;8.222;2023-04-15T15:22:56;12.10;99.90
1778;DHT22;886;50.082;8.222;2023-04-15T15:25:27;12.00;99.90
1778;DHT22;886;50.082;8.222;2023-04-15T15:27:56;11.90;99.90
1778;DHT22;886;50.082;8.222;2023-04-15T15:30:27;11.90;99.90
1778;DHT22;886;50.082;8.222;2023-04-15T15:32:54;11.90;99.90
1778;DHT22;886;50.082;8.222;2023-04-15T15:35:25;11.80;99.90
1778;DHT22;886;50.082;8.222;2023-04-15T15:38:00;11.70;99.90
1778;DHT22;886;50.082;8.222;2023-04-15T15:40:29;11.50;99.90
1778;DHT22;886;50.082;8.222;2023-04-15T15:42:58;11.40;99.90
1778;DHT22;886;50.082;8.222;2023-04-15T15:45:27;11.40;99.90
1778;DHT22;886;50.082;8.222;2023-04-15T15:48:01;11.40;99.90
1778;DHT22;886;50.082;8.222;2023-04-15T15:50:32;11.40;99.90
1778;DHT22;886;50.082;8.222;2023-04-15T15:53:04;11.40;99.90
1778;DHT22;886;50.082;8.222;2023-04-15T15:55:35;11.40;99.90
1778;DHT22;886;50.082;8.222;2023-04-15T15:58:05;11.40;99.90
1778;DHT22;886;50.082;8.222;2023-04-15T16:00:34;11.50;99.90
1778;DHT22;886;50.082;8.222;2023-04-15T16:03:03;11.50;99.90
1778;DHT22;886;50.082;8.222;2023-04-15T16:05:42;11.50;99.90
1778;DHT22;886;50.082;8.222;2023-04-15T16:08:16;11.50;99.90
1778;DHT22;886;50.082;8.222;2023-04-15T16:10:44;11.40;99.90
1778;DHT22;886;50.082;8.222;2023-04-15T16:13:14;11.30;99.90
1778;DHT22;886;50.082;8.222;2023-04-15T16:15:41;11.30;99.90
1778;DHT22;886;50.082;8.222;2023-04-15T16:18:09;11.30;99.90
1778;DHT22;886;50.082;8.222;2023-04-15T16:20:37;11.30;99.90
1778;DHT22;886;50.082;8.222;2023-04-15T16:23:11;11.20;99.90
1778;DHT22;886;50.082;8.222;2023-04-15T16:25:41;11.20;99.90
1778;DHT22;886;50.082;8.222;2023-04-15T16:28:13;11.10;99.90
1778;DHT22;886;50.082;8.222;2023-04-15T16:30:52;11.00;99.90
1778;DHT22;886;50.082;8.222;2023-04-15T16:33:20;10.90;99.90
1778;DHT22;886;50.082;8.222;2023-04-15T16:35:47;10.90;99.90
1778;DHT22;886;50.082;8.222;2023-04-15T16:38:17;10.90;99.90
1778;DHT22;886;50.082;8.222;2023-04-15T16:40:46;10.90;99.90
1778;DHT22;886;50.082;8.222;2023-04-15T16:43:13;10.90;99.90
1778;DHT22;886;50.082;8.222;2023-04-15T16:45:46;10.80;99.90
1778;DHT22;886;50.082;8.222;2023-04-15T16:48:17;10.80;99.90